Glen Burnie, Maryland
Current Conditions -  °F | °C
As of 8:54 PM on Wednesday 22 Oct 2014 (Local Time) from KBWI Reporting Station
Overcast Overcast  
Wind Chill: 12°   Ceiling: 3200
Heat Index: 12°   Visibility: 10mi
Dew Point:   Wind: 14mph
Humidity: 72%   Direction: 330°NNW
Pressure: 29.93"   Gusts: 21mph
Location:  39.16°N, 76.62°W
Report Text: KBWI 230054Z 33012G18KT 10SM FEW025 BKN032 OVC060 12/07 A2993 RMK AO2 SLP133 T01220072
Loading
Personal Weather Stations






























Interactive Weather Map
Tropical Storm Tracking
New forecast layout! Learn more

10-Day Weather Forecast

Advertisements
Track Severe Weather on mobile